createdAt,value
2023-04-18T00:02:09.057Z,101274.47
2023-04-18T00:04:36.797Z,101272.72
2023-04-18T00:07:04.440Z,101275.47
2023-04-18T00:09:31.947Z,101272.31
2023-04-18T00:11:59.477Z,101273.50
2023-04-18T00:14:30.098Z,101273.47
2023-04-18T00:16:57.637Z,101275.22
2023-04-18T00:19:25.163Z,101277.88
2023-04-18T00:21:53.431Z,101282.06
2023-04-18T00:24:21.075Z,101274.50
2023-04-18T00:26:51.685Z,101273.88
2023-04-18T00:29:19.170Z,101279.19
2023-04-18T00:31:47.976Z,101271.28
2023-04-18T00:34:15.611Z,101267.63
2023-04-18T00:36:43.193Z,101276.63
2023-04-18T00:39:10.715Z,101272.00
2023-04-18T00:41:38.216Z,101275.66
2023-04-18T00:44:06.129Z,101274.88
2023-04-18T00:46:33.807Z,101269.84
2023-04-18T00:49:03.184Z,101271.47
2023-04-18T00:51:30.668Z,101272.16
2023-04-18T00:53:58.406Z,101271.44
2023-04-18T00:56:25.945Z,101271.94
2023-04-18T00:58:53.487Z,101276.00
2023-04-18T01:01:21.343Z,101270.41
2023-04-18T01:03:48.984Z,101264.06
2023-04-18T01:06:18.013Z,101268.88
2023-04-18T01:08:45.872Z,101268.34
2023-04-18T01:11:13.358Z,101268.50
2023-04-18T01:13:40.862Z,101262.53
2023-04-18T01:16:08.626Z,101265.22
2023-04-18T01:18:37.094Z,101268.41
2023-04-18T01:21:06.205Z,101259.72
2023-04-18T01:23:35.094Z,101259.56
2023-04-18T01:26:03.911Z,101251.84
2023-04-18T01:28:31.402Z,101254.56
2023-04-18T01:30:58.947Z,101251.09
2023-04-18T01:33:26.454Z,101251.75
2023-04-18T01:35:53.977Z,101253.53
2023-04-18T01:38:21.448Z,101256.09
2023-04-18T01:40:48.936Z,101257.13
2023-04-18T01:43:17.751Z,101257.00
2023-04-18T01:45:45.245Z,101251.84
2023-04-18T01:48:12.730Z,101258.78
2023-04-18T01:50:40.352Z,101260.00
2023-04-18T01:53:07.842Z,101257.03
2023-04-18T01:55:36.464Z,101250.91
2023-04-18T01:58:03.972Z,101250.75
2023-04-18T02:00:32.831Z,101238.72
2023-04-18T02:03:00.584Z,101242.56
2023-04-18T02:05:28.321Z,101239.41
2023-04-18T02:07:55.992Z,101237.47
2023-04-18T02:10:23.708Z,101245.69
2023-04-18T02:12:51.232Z,101243.72
2023-04-18T02:15:19.007Z,101241.03
2023-04-18T02:17:49.051Z,101234.97
2023-04-18T02:20:16.598Z,101239.41
2023-04-18T02:22:44.425Z,101243.91
2023-04-18T02:25:11.987Z,101242.59
2023-04-18T02:27:39.475Z,101241.03
2023-04-18T02:30:08.225Z,101240.03
2023-04-18T02:32:35.915Z,101239.09
2023-04-18T02:35:05.347Z,101235.66
2023-04-18T02:37:32.837Z,101245.03
2023-04-18T02:40:00.391Z,101242.00
2023-04-18T02:42:27.908Z,101254.38
2023-04-18T02:44:55.477Z,101237.38
2023-04-18T02:47:22.942Z,101248.09
2023-04-18T02:49:50.859Z,101243.69
2023-04-18T02:52:19.663Z,101244.50
2023-04-18T02:54:47.159Z,101244.56
2023-04-18T02:57:14.651Z,101239.16
2023-04-18T02:59:42.142Z,101247.16
2023-04-18T03:02:09.715Z,101247.22
2023-04-18T03:04:37.243Z,101244.63
2023-04-18T03:07:04.759Z,101249.25
2023-04-18T03:09:33.565Z,101252.44
2023-04-18T03:12:02.113Z,101256.91
2023-04-18T03:14:29.654Z,101249.94
2023-04-18T03:16:57.227Z,101256.97
2023-04-18T03:19:24.741Z,101252.38
2023-04-18T03:21:54.305Z,101251.50
2023-04-18T03:24:21.824Z,101253.22
2023-04-18T03:26:50.715Z,101254.19
2023-04-18T03:29:18.201Z,101252.59
2023-04-18T03:31:45.907Z,101256.09
2023-04-18T03:34:13.761Z,101253.16
2023-04-18T03:36:41.396Z,101244.50
2023-04-18T03:39:08.916Z,101249.78
2023-04-18T03:41:36.406Z,101253.25
2023-04-18T03:44:05.582Z,101249.94
2023-04-18T03:46:33.104Z,101256.88
2023-04-18T03:49:00.844Z,101262.22
2023-04-18T03:51:28.430Z,101259.47
2023-04-18T03:53:55.913Z,101263.06
2023-04-18T03:56:23.441Z,101262.09
2023-04-18T03:58:50.956Z,101257.84
2023-04-18T04:01:19.790Z,101265.75
2023-04-18T04:03:47.502Z,101258.56
2023-04-18T04:06:15.569Z,101262.06
2023-04-18T04:08:43.071Z,101269.25
2023-04-18T04:11:10.573Z,101266.50
2023-04-18T04:13:38.063Z,101262.28
2023-04-18T04:16:06.594Z,101270.28
2023-04-18T04:18:35.470Z,101265.03
2023-04-18T04:21:04.102Z,101273.63
2023-04-18T04:23:31.602Z,101278.88
2023-04-18T04:25:59.258Z,101281.59
2023-04-18T04:28:26.778Z,101279.78
2023-04-18T04:30:55.480Z,101276.31
2023-04-18T04:33:25.111Z,101276.16
2023-04-18T04:35:54.273Z,101274.50
2023-04-18T04:38:22.994Z,101285.06
2023-04-18T04:40:50.959Z,101281.63
2023-04-18T04:43:20.576Z,101288.63
2023-04-18T04:45:49.556Z,101277.16
2023-04-18T04:48:18.758Z,101279.91
2023-04-18T04:50:54.271Z,101295.91
2023-04-18T04:53:21.962Z,101296.81
2023-04-18T04:55:49.756Z,101288.56
2023-04-18T04:58:17.264Z,101299.28
2023-04-18T05:00:44.738Z,101307.16
2023-04-18T05:03:12.366Z,101305.03
2023-04-18T05:05:40.234Z,101317.16
2023-04-18T05:08:09.100Z,101309.13
2023-04-18T05:10:37.412Z,101326.56
2023-04-18T05:13:05.139Z,101323.53
2023-04-18T05:15:32.704Z,101326.78
2023-04-18T05:18:00.360Z,101332.09
2023-04-18T05:20:27.848Z,101326.59
2023-04-18T05:22:55.365Z,101319.13
2023-04-18T05:25:24.158Z,101322.63
2023-04-18T05:27:52.027Z,101333.47
2023-04-18T05:30:19.729Z,101331.06
2023-04-18T05:32:47.262Z,101335.75
2023-04-18T05:35:14.810Z,101333.94
2023-04-18T05:37:42.325Z,101333.25
2023-04-18T05:40:10.799Z,101334.94
2023-04-18T05:42:39.626Z,101333.16
2023-04-18T05:45:08.085Z,101332.75
2023-04-18T05:47:35.650Z,101340.34
2023-04-18T05:50:03.288Z,101339.47
2023-04-18T05:52:31.247Z,101338.75
2023-04-18T05:54:58.746Z,101341.44
2023-04-18T05:57:26.323Z,101352.69
2023-04-18T05:59:55.116Z,101340.59
2023-04-18T06:02:22.836Z,101352.03
2023-04-18T06:04:51.525Z,101353.84
2023-04-18T06:07:19.208Z,101353.59
2023-04-18T06:09:46.677Z,101351.25
2023-04-18T06:12:14.170Z,101356.50
2023-04-18T06:14:41.654Z,101366.91
2023-04-18T06:17:12.536Z,101366.44
2023-04-18T06:19:40.223Z,101364.53
2023-04-18T06:22:08.071Z,101372.72
2023-04-18T06:24:35.648Z,101375.84
2023-04-18T06:27:03.201Z,101373.56
2023-04-18T06:29:33.103Z,101375.16
2023-04-18T06:32:00.739Z,101376.09
2023-04-18T06:34:29.576Z,101375.94
2023-04-18T06:36:57.059Z,101380.16
2023-04-18T06:39:24.681Z,101379.25
2023-04-18T06:41:52.197Z,101377.06
2023-04-18T06:44:19.676Z,101381.41
2023-04-18T06:46:47.257Z,101387.28
2023-04-18T06:49:14.746Z,101384.31
2023-04-18T06:51:43.556Z,101378.78
2023-04-18T06:54:11.381Z,101382.66
2023-04-18T06:56:38.921Z,101380.06
2023-04-18T06:59:06.416Z,101386.72
2023-04-18T07:01:34.141Z,101389.06
2023-04-18T07:04:04.602Z,101391.72
2023-04-18T07:06:32.278Z,101392.06
2023-04-18T07:09:01.565Z,101388.25
2023-04-18T07:11:29.373Z,101393.56
2023-04-18T07:13:56.877Z,101404.00
2023-04-18T07:16:24.420Z,101401.25
2023-04-18T07:18:52.551Z,101403.09
2023-04-18T07:21:20.223Z,101401.56
2023-04-18T07:23:47.720Z,101399.56
2023-04-18T07:26:16.570Z,101398.75
2023-04-18T07:28:44.047Z,101404.75
2023-04-18T07:31:14.407Z,101398.88
2023-04-18T07:33:43.262Z,101394.25
2023-04-18T07:36:10.894Z,101392.38
2023-04-18T07:38:38.399Z,101389.03
2023-04-18T07:41:05.941Z,101385.59
2023-04-18T07:43:34.783Z,101388.47
2023-04-18T07:46:02.467Z,101384.28
2023-04-18T07:48:29.982Z,101389.84
2023-04-18T07:50:57.577Z,101399.06
2023-04-18T07:53:25.101Z,101397.00
2023-04-18T07:55:54.381Z,101391.31
2023-04-18T07:58:22.023Z,101390.47
2023-04-18T08:00:50.862Z,101391.66
2023-04-18T08:03:18.522Z,101383.97
2023-04-18T08:05:46.212Z,101386.66
2023-04-18T08:08:13.827Z,101402.91
2023-04-18T08:10:41.376Z,101393.81
2023-04-18T08:13:09.485Z,101399.00
2023-04-18T08:15:37.079Z,101405.63
2023-04-18T08:18:06.157Z,101395.53
2023-04-18T08:20:34.325Z,101404.50
2023-04-18T08:23:08.617Z,101417.69
2023-04-18T08:25:37.191Z,101414.72
2023-04-18T08:28:04.837Z,101410.31
2023-04-18T08:30:32.520Z,101417.41
2023-04-18T08:33:00.320Z,101411.16
2023-04-18T08:35:29.296Z,101417.69
2023-04-18T08:37:56.805Z,101414.78
2023-04-18T08:40:24.484Z,101420.13
2023-04-18T08:42:53.808Z,101415.13
2023-04-18T08:45:21.451Z,101419.94
2023-04-18T08:47:49.055Z,101417.66
2023-04-18T08:50:18.423Z,101414.31
2023-04-18T08:52:48.747Z,101408.75
2023-04-18T08:55:16.818Z,101411.34
2023-04-18T08:57:44.876Z,101414.06
2023-04-18T09:00:13.652Z,101413.91
2023-04-18T09:02:43.605Z,101410.72
2023-04-18T09:05:12.940Z,101404.50
2023-04-18T09:07:40.592Z,101412.50
2023-04-18T09:10:10.975Z,101418.59
2023-04-18T09:12:44.617Z,101417.88
2023-04-18T09:15:14.086Z,101415.19
2023-04-18T09:17:43.569Z,101410.75
2023-04-18T09:20:12.007Z,101420.25
2023-04-18T09:22:47.758Z,101409.41
2023-04-18T09:25:27.366Z,101414.28
2023-04-18T09:27:55.076Z,101409.78
2023-04-18T09:30:39.254Z,101411.63
2023-04-18T09:33:09.493Z,101410.72
2023-04-18T09:35:37.698Z,101410.75
2023-04-18T09:38:05.556Z,101415.19
2023-04-18T09:40:34.630Z,101413.75
2023-04-18T09:43:02.262Z,101416.06
2023-04-18T09:45:29.779Z,101423.19
2023-04-18T09:47:57.291Z,101426.75
2023-04-18T09:50:24.790Z,101423.22
2023-04-18T09:52:52.252Z,101418.72
2023-04-18T09:55:20.447Z,101426.78
2023-04-18T09:57:49.937Z,101422.31
2023-04-18T10:00:24.095Z,101416.84
2023-04-18T10:02:55.110Z,101419.47
2023-04-18T10:05:26.266Z,101417.84
2023-04-18T10:07:54.865Z,101413.41
2023-04-18T10:10:22.560Z,101422.25
2023-04-18T10:12:53.718Z,101411.66
2023-04-18T10:15:22.520Z,101411.66
2023-04-18T10:18:04.476Z,101416.03
2023-04-18T10:20:33.425Z,101428.38
2023-04-18T10:23:01.294Z,101433.81
2023-04-18T10:25:51.526Z,101420.53
2023-04-18T10:28:21.402Z,101418.78
2023-04-18T10:30:56.840Z,101419.66
2023-04-18T10:33:32.162Z,101417.75
2023-04-18T10:36:02.204Z,101418.72
2023-04-18T10:38:30.058Z,101425.84
2023-04-18T10:41:17.548Z,101419.63
2023-04-18T10:44:19.420Z,101418.72
2023-04-18T10:47:33.096Z,101416.09
2023-04-18T10:50:06.192Z,101411.59
2023-04-18T10:52:34.205Z,101416.97
2023-04-18T10:55:18.695Z,101411.47
2023-04-18T10:57:47.437Z,101409.84
2023-04-18T11:00:18.052Z,101416.97
2023-04-18T11:02:53.738Z,101413.28
2023-04-18T11:05:23.606Z,101409.78
2023-04-18T11:07:51.665Z,101417.63
2023-04-18T11:10:20.761Z,101406.16
2023-04-18T11:12:48.646Z,101404.19
2023-04-18T11:15:21.613Z,101408.84
2023-04-18T11:17:57.466Z,101412.25
2023-04-18T11:20:25.117Z,101399.81
2023-04-18T11:22:54.041Z,101404.91
2023-04-18T11:25:25.098Z,101401.19
2023-04-18T11:27:52.645Z,101402.28
2023-04-18T11:30:21.660Z,101389.75
2023-04-18T11:32:49.183Z,101399.75
2023-04-18T11:35:17.373Z,101389.63
2023-04-18T11:37:45.876Z,101394.44
2023-04-18T11:40:14.396Z,101382.09
2023-04-18T11:42:42.518Z,101384.97
2023-04-18T11:45:11.777Z,101378.69
2023-04-18T11:47:41.936Z,101390.94
2023-04-18T11:50:11.352Z,101391.16
2023-04-18T11:52:40.865Z,101396.25
2023-04-18T11:55:13.957Z,101379.50
2023-04-18T11:57:42.195Z,101399.75
2023-04-18T12:00:12.260Z,101389.03
2023-04-18T12:02:42.765Z,101378.50
2023-04-18T12:05:11.633Z,101384.31
2023-04-18T12:07:40.777Z,101378.16
2023-04-18T12:10:09.761Z,101385.28
2023-04-18T12:12:37.369Z,101392.50
2023-04-18T12:15:08.829Z,101380.56
2023-04-18T12:17:37.354Z,101375.03
2023-04-18T12:20:10.026Z,101374.66
2023-04-18T12:22:38.715Z,101372.34
2023-04-18T12:25:20.143Z,101372.78
2023-04-18T12:27:51.778Z,101367.06
2023-04-18T12:30:21.923Z,101376.25
2023-04-18T12:32:51.188Z,101369.78
2023-04-18T12:35:20.753Z,101373.91
2023-04-18T12:37:48.683Z,101378.03
2023-04-18T12:40:18.899Z,101365.00
2023-04-18T12:42:47.030Z,101363.00
2023-04-18T12:45:15.534Z,101370.91
2023-04-18T12:47:44.496Z,101370.00
2023-04-18T12:50:12.989Z,101367.16
2023-04-18T12:52:42.361Z,101357.75
2023-04-18T12:55:10.706Z,101366.88
2023-04-18T12:57:38.557Z,101365.13
2023-04-18T13:00:10.382Z,101364.22
2023-04-18T13:02:39.080Z,101357.88
2023-04-18T13:05:07.858Z,101369.00
2023-04-18T13:07:37.325Z,101359.56
2023-04-18T13:10:07.505Z,101363.69
2023-04-18T13:12:35.394Z,101370.88
2023-04-18T13:15:03.526Z,101364.41
2023-04-18T13:17:31.045Z,101372.94
2023-04-18T13:19:58.570Z,101377.19
2023-04-18T13:22:26.111Z,101373.31
2023-04-18T13:24:53.593Z,101369.75
2023-04-18T13:27:22.416Z,101371.47
2023-04-18T13:29:49.999Z,101375.59
2023-04-18T13:32:17.776Z,101369.69
2023-04-18T13:34:47.463Z,101367.81
2023-04-18T13:37:15.562Z,101357.56
2023-04-18T13:39:43.049Z,101355.31
2023-04-18T13:42:10.630Z,101357.97
2023-04-18T13:44:39.759Z,101352.97
2023-04-18T13:47:08.363Z,101357.50
2023-04-18T13:49:36.321Z,101350.09
2023-04-18T13:52:04.332Z,101350.34
2023-04-18T13:54:33.383Z,101356.41
2023-04-18T13:57:03.104Z,101348.81
2023-04-18T13:59:32.414Z,101357.88
2023-04-18T14:02:01.473Z,101349.84
2023-04-18T14:04:29.555Z,101352.53
2023-04-18T14:06:57.213Z,101356.94
2023-04-18T14:09:24.694Z,101355.81
2023-04-18T14:11:52.188Z,101354.38
2023-04-18T14:14:19.686Z,101340.47
2023-04-18T14:16:47.195Z,101338.84
2023-04-18T14:19:16.106Z,101341.41
2023-04-18T14:21:43.883Z,101343.00
2023-04-18T14:24:11.408Z,101336.00
2023-04-18T14:26:38.909Z,101338.34
2023-04-18T14:29:06.469Z,101340.59
2023-04-18T14:31:34.047Z,101336.41
2023-04-18T14:34:01.667Z,101338.31
2023-04-18T14:36:30.908Z,101338.59
2023-04-18T14:38:59.063Z,101345.88
2023-04-18T14:41:26.841Z,101332.41
2023-04-18T14:43:54.379Z,101340.50
2023-04-18T14:46:22.382Z,101338.16
2023-04-18T14:48:49.942Z,101341.75
2023-04-18T14:51:17.574Z,101326.22
2023-04-18T14:53:46.551Z,101342.31
2023-04-18T14:56:15.077Z,101337.63
2023-04-18T14:58:43.827Z,101329.72
2023-04-18T15:01:11.364Z,101327.94
2023-04-18T15:03:39.005Z,101333.19
2023-04-18T15:06:07.237Z,101328.00
2023-04-18T15:08:34.761Z,101330.78
2023-04-18T15:11:06.647Z,101321.59
2023-04-18T15:13:34.307Z,101325.09
2023-04-18T15:16:01.926Z,101339.16
2023-04-18T15:18:29.525Z,101325.94
2023-04-18T15:20:57.527Z,101338.41
2023-04-18T15:23:25.017Z,101324.94
2023-04-18T15:25:52.522Z,101325.06
2023-04-18T15:28:21.372Z,101328.69
2023-04-18T15:30:48.893Z,101332.00
2023-04-18T15:33:17.842Z,101332.63
2023-04-18T15:35:45.473Z,101330.09
2023-04-18T15:38:12.993Z,101324.34
2023-04-18T15:40:40.768Z,101329.34
2023-04-18T15:43:08.344Z,101332.25
2023-04-18T15:45:37.158Z,101328.69
2023-04-18T15:48:04.957Z,101327.41
2023-04-18T15:50:33.826Z,101328.31
2023-04-18T15:53:01.592Z,101334.06
2023-04-18T15:55:29.151Z,101330.25
2023-04-18T15:57:56.693Z,101328.09
2023-04-18T16:00:24.388Z,101330.41
2023-04-18T16:02:53.288Z,101331.06
2023-04-18T16:05:20.838Z,101314.66
2023-04-18T16:07:48.372Z,101328.41
2023-04-18T16:10:15.972Z,101323.06
2023-04-18T16:12:43.503Z,101326.28
2023-04-18T16:15:11.806Z,101335.31
2023-04-18T16:17:39.585Z,101324.94
2023-04-18T16:20:09.462Z,101330.28
2023-04-18T16:22:37.380Z,101336.63
2023-04-18T16:25:05.439Z,101331.09
2023-04-18T16:27:33.256Z,101333.69
2023-04-18T16:30:01.094Z,101327.22
2023-04-18T16:32:28.683Z,101332.78
2023-04-18T16:34:56.216Z,101332.06
2023-04-18T16:37:25.044Z,101327.25
2023-04-18T16:39:52.566Z,101327.75
2023-04-18T16:42:20.029Z,101321.94
2023-04-18T16:44:48.325Z,101327.53
2023-04-18T16:47:15.996Z,101326.81
2023-04-18T16:49:46.517Z,101330.19
2023-04-18T16:52:14.160Z,101327.06
2023-04-18T16:54:43.025Z,101333.47
2023-04-18T16:57:10.732Z,101324.75
2023-04-18T16:59:38.266Z,101327.69
2023-04-18T17:02:06.762Z,101328.25
2023-04-18T17:04:34.579Z,101338.75
2023-04-18T17:07:02.097Z,101334.69
2023-04-18T17:09:29.616Z,101330.78
2023-04-18T17:11:58.961Z,101328.75
2023-04-18T17:14:26.504Z,101332.69
2023-04-18T17:16:54.206Z,101327.50
2023-04-18T17:19:21.821Z,101333.69
2023-04-18T17:21:50.936Z,101330.22
2023-04-18T17:24:18.759Z,101324.06
2023-04-18T17:26:46.271Z,101328.41
2023-04-18T17:29:15.556Z,101334.78
2023-04-18T17:31:43.304Z,101326.81
2023-04-18T17:34:10.861Z,101330.34
2023-04-18T17:36:38.394Z,101322.66
2023-04-18T17:39:06.598Z,101330.78
2023-04-18T17:41:36.520Z,101336.66
2023-04-18T17:44:04.260Z,101334.78
2023-04-18T17:46:33.275Z,101329.38
2023-04-18T17:49:00.844Z,101337.50
2023-04-18T17:51:28.339Z,101328.63
2023-04-18T17:53:56.017Z,101333.13
2023-04-18T17:56:23.859Z,101335.78
2023-04-18T17:58:51.432Z,101332.56
2023-04-18T18:01:19.821Z,101329.50
2023-04-18T18:03:49.295Z,101335.75
2023-04-18T18:06:16.991Z,101331.75
2023-04-18T18:08:44.589Z,101330.13
2023-04-18T18:11:12.132Z,101332.97
2023-04-18T18:13:39.890Z,101332.34
2023-04-18T18:16:08.728Z,101342.44
2023-04-18T18:18:36.821Z,101334.94
2023-04-18T18:21:05.753Z,101340.31
2023-04-18T18:23:33.289Z,101341.16
2023-04-18T18:26:01.240Z,101347.41
2023-04-18T18:28:28.836Z,101344.81
2023-04-18T18:30:56.367Z,101351.59
2023-04-18T18:33:24.045Z,101352.91
2023-04-18T18:35:51.706Z,101348.50
2023-04-18T18:38:20.575Z,101351.19
2023-04-18T18:40:48.137Z,101352.91
2023-04-18T18:43:15.661Z,101354.78
2023-04-18T18:45:43.213Z,101359.28
2023-04-18T18:48:11.543Z,101358.31
2023-04-18T18:50:39.064Z,101367.38
2023-04-18T18:53:06.778Z,101364.75
2023-04-18T18:55:35.552Z,101372.81
2023-04-18T18:58:03.155Z,101363.91
2023-04-18T19:00:30.632Z,101371.09
2023-04-18T19:02:58.246Z,101373.72
2023-04-18T19:05:26.012Z,101385.41
2023-04-18T19:07:53.942Z,101393.47
2023-04-18T19:10:21.733Z,101378.22
2023-04-18T19:12:50.556Z,101383.63
2023-04-18T19:15:18.111Z,101381.84
2023-04-18T19:17:45.718Z,101380.13
2023-04-18T19:20:13.297Z,101386.38
2023-04-18T19:22:40.783Z,101385.47
2023-04-18T19:25:09.764Z,101389.97
2023-04-18T19:27:37.251Z,101379.25
2023-04-18T19:30:07.416Z,101386.41
2023-04-18T19:32:34.955Z,101381.03
2023-04-18T19:35:02.466Z,101385.50
2023-04-18T19:37:29.970Z,101384.66
2023-04-18T19:39:57.462Z,101390.91
2023-04-18T19:42:25.023Z,101385.50
2023-04-18T19:44:52.529Z,101387.34
2023-04-18T19:47:21.388Z,101399.81
2023-04-18T19:49:48.908Z,101395.41
2023-04-18T19:52:16.578Z,101382.91
2023-04-18T19:54:44.066Z,101384.69
2023-04-18T19:57:11.696Z,101388.16
2023-04-18T19:59:39.315Z,101384.75
2023-04-18T20:02:07.202Z,101385.63
2023-04-18T20:04:36.444Z,101387.44
2023-04-18T20:07:04.269Z,101392.81
2023-04-18T20:09:31.785Z,101392.84
2023-04-18T20:12:00.445Z,101392.84
2023-04-18T20:14:28.434Z,101389.28
2023-04-18T20:16:56.074Z,101385.72
2023-04-18T20:19:25.608Z,101388.38
2023-04-18T20:21:54.461Z,101407.09
2023-04-18T20:24:21.988Z,101399.09
2023-04-18T20:26:49.491Z,101407.16
2023-04-18T20:29:17.071Z,101408.94
2023-04-18T20:31:44.565Z,101409.81
2023-04-18T20:34:12.215Z,101410.69
2023-04-18T20:36:41.565Z,101404.50
2023-04-18T20:39:10.458Z,101403.59
2023-04-18T20:41:38.478Z,101407.16
2023-04-18T20:44:06.726Z,101409.84
2023-04-18T20:46:34.383Z,101407.13
2023-04-18T20:49:02.067Z,101413.41
2023-04-18T20:51:29.866Z,101409.84
2023-04-18T20:53:57.359Z,101409.81
2023-04-18T20:56:26.195Z,101414.28
2023-04-18T20:58:53.662Z,101411.63
2023-04-18T21:01:21.590Z,101408.03
2023-04-18T21:03:49.260Z,101417.88
2023-04-18T21:06:19.068Z,101428.56
2023-04-18T21:08:46.545Z,101413.41
2023-04-18T21:11:14.289Z,101421.44
2023-04-18T21:13:43.070Z,101417.88
2023-04-18T21:16:11.153Z,101425.00
2023-04-18T21:18:38.704Z,101430.34
2023-04-18T21:21:07.131Z,101422.34
2023-04-18T21:23:34.606Z,101425.88
2023-04-18T21:26:02.153Z,101421.44
2023-04-18T21:28:29.652Z,101426.78
2023-04-18T21:30:58.439Z,101425.88
2023-04-18T21:33:26.197Z,101425.88
2023-04-18T21:35:53.701Z,101422.34
2023-04-18T21:38:25.216Z,101419.66
2023-04-18T21:40:52.689Z,101427.66
2023-04-18T21:43:21.388Z,101433.00
2023-04-18T21:45:48.937Z,101426.75
2023-04-18T21:48:17.792Z,101415.19
2023-04-18T21:50:45.384Z,101427.63
2023-04-18T21:53:12.853Z,101415.16
2023-04-18T21:55:40.375Z,101430.31
2023-04-18T21:58:08.037Z,101419.59
2023-04-18T22:00:35.534Z,101420.47
2023-04-18T22:03:03.150Z,101420.44
2023-04-18T22:05:33.288Z,101421.38
2023-04-18T22:08:00.794Z,101422.19
2023-04-18T22:10:28.281Z,101415.91
2023-04-18T22:12:55.986Z,101413.25
2023-04-18T22:15:23.779Z,101416.81
2023-04-18T22:17:51.298Z,101418.56
2023-04-18T22:20:18.871Z,101413.25
2023-04-18T22:22:47.652Z,101416.78
2023-04-18T22:25:15.264Z,101410.53
2023-04-18T22:27:43.084Z,101409.63
2023-04-18T22:30:11.470Z,101417.59
2023-04-18T22:32:39.012Z,101411.34
2023-04-18T22:35:07.619Z,101413.13
2023-04-18T22:37:35.099Z,101412.25
2023-04-18T22:40:05.254Z,101406.94
2023-04-18T22:42:33.736Z,101407.78
2023-04-18T22:45:01.498Z,101401.56
2023-04-18T22:47:29.033Z,101402.59
2023-04-18T22:49:56.574Z,101401.63
2023-04-18T22:52:25.023Z,101406.97
2023-04-18T22:54:52.574Z,101400.69
2023-04-18T22:57:21.713Z,101405.16
2023-04-18T22:59:49.205Z,101397.03
2023-04-18T23:02:16.848Z,101402.44
2023-04-18T23:04:46.223Z,101399.72
2023-04-18T23:07:13.981Z,101405.03
2023-04-18T23:09:41.476Z,101400.63
2023-04-18T23:12:09.032Z,101402.31
2023-04-18T23:14:38.876Z,101398.03
2023-04-18T23:17:06.376Z,101392.53
2023-04-18T23:19:33.858Z,101385.38
2023-04-18T23:22:01.372Z,101390.69
2023-04-18T23:24:28.869Z,101383.75
2023-04-18T23:26:57.006Z,101388.97
2023-04-18T23:29:24.591Z,101384.47
2023-04-18T23:31:53.459Z,101383.53
2023-04-18T23:34:21.111Z,101384.34
2023-04-18T23:36:48.565Z,101385.19
2023-04-18T23:39:18.409Z,101385.94
2023-04-18T23:41:46.031Z,101386.00
2023-04-18T23:44:13.828Z,101389.38
2023-04-18T23:46:41.726Z,101383.97
2023-04-18T23:49:10.630Z,101389.31
2023-04-18T23:51:38.579Z,101386.47
2023-04-18T23:54:06.422Z,101392.69
2023-04-18T23:56:34.538Z,101382.97
2023-04-18T23:59:02.055Z,101382.16
